Rota Mariana Islands, Northern Mariana Islands
Current Conditions -  °F | °C
As of 6:50 AM on Saturday 25 Oct 2014 (Local Time) from PGRO Reporting Station
Scattered Clouds Scattered Clouds  
Wind Chill: 79°   Ceiling: Unl
Heat Index: 83°   Visibility: 7mi
Dew Point: 77°   Wind: 3mph
Humidity: 94%   Direction: 60°ENE
Pressure: 29.91"   Gusts: NA
Location:  14.17°N, 145.25°E
Report Text: PGRO 242050Z 06003KT 7SM FEW020 SCT100 26/25 A2991
Loading
Personal Weather Stations






























Interactive Weather Map
Tropical Storm Tracking
New forecast layout! Learn more

10-Day Weather Forecast

Advertisements
Track Severe Weather on mobile